KMYV

Yuba County Airport

Marysville, California, USA
METAR KMYV 202353Z AUTO 21005KT 10SM CLR 35/09 A2977 RMK AO2 SLP085 T03500094 10356 20261 56014
Observed Flight Rules
Aug-20 @ 23:53 UTC (16 minutes ago) Visual Flight Rules
Wind Visibility Clouds
210° at 5 knots 10 miles
  • Clear skies
Temperatures Readings
Current 35°C / 95°F
Dewpoint 9°C / 48°F
Humidity 20%
Altimeter 29.77" Hg
Pressure 1008.5 hPa
Elevation 21
METAR KMYV 202353Z AUTO 21005KT 10SM CLR 35/09 A2977 RMK AO2 SLP085 T03500094 10356 20261 56014
Observed Flight Rules
Aug-20 @ 23:53 UTC
(16 minutes ago)
VFR
Wind Visibility
210° at 5 knots 10 miles
Clouds
  • Clear skies
Temperature Dewpoint
35°C / 95°F 9°C / 48°F
Humidity Altimeter Pressure
20% 29.77" Hg 1008.5 hPa